Tiempo atmosférico en la estación meteorológica de Badajoz Aeropuerto, Badajoz (185 m.)



Fecha
DESCASC
Temp. máxima en grados centígrados (hora)
DESCASC
Temp. mínima en grados centígrados (hora)
DESCASC
Temp. media en grados centígrados
DESCASC
Racha de viento máxima en m/sg (hora)
DESCASC
Velocidad máxima media en intervalos de 10 minutos(hora)
DESCASC
Precipitaciones diarias en mm
DESCASC
Precipitaciones de 00:00 a 06:00 en mm
DESCASC
Precipitaciones de 06:00 a 12:00 en mm
DESCASC
Precipitaciones de 12:00 a 18:00 en mm
DESCASC
Precipitaciones de 18:00 a 24:00 en mm
DESCASC
14-10-2019 21.7 (00:00) 12.4 (00:00) 17.1 14.17 (14:30) 5.83 (14:50) 7.4 0.8 1.6 5 0
12-10-2019 31.9 (16:40) 17.8 (00:00) 24.8 12.5 (17:50) 6.67 (17:50) 0 0 0 0 0
01-10-2019 28.4 (16:20) 16.7 (00:00) 22.6 11.67 (14:50) 7.22 (17:00) 0 0 0 0 0
25-09-2019 28 (17:30) 13.9 (00:00) 20.9 11.39 (14:30) 5 (14:30) 0 0 0 0 0
21-09-2019 25 (17:20) 18.1 (00:00) 21.6 10 (17:50) 5.28 (17:50) 3.6 0 2.6 0.2 0.8
20-09-2019 27.8 (15:30) 16.8 (00:00) 22.3 9.17 (15:40) 4.17 (16:00) 0.4 0 0 0.4 0
24-09-2019 28.2 (16:00) 14.2 (00:00) 21.2 9.17 (19:30) 6.67 (18:20) 0 0 0 0 0
22-09-2019 25 (16:40) 14.9 (00:00) 19.9 8.06 (03:00) 5 (16:50) 1 1 0 0 0
18-09-2019 31.3 (17:00) 16.4 (00:00) 23.8 7.78 (23:30) 4.72 (23:30) 0 0 0 0 0
02-10-2019 29.2 (17:50) 11.8 (00:00) 20.5 7.78 (00:30) 4.72 (00:20) 0 0 0 0 0
17-10-2019 21.6 (17:30) 11.9 (00:00) 16.8 7.5 (19:00) 3.33 (14:10) 0.6 0 0 0.6 0
30-09-2019 33.9 (16:40) 13 (00:00) 23.5 7.22 (16:30) 3.61 (16:30) 0 0 0 0 0
03-10-2019 30 (17:00) 11.9 (00:00) 20.9 6.94 (17:20) 3.89 (17:50) 0 0 0 0 0
16-10-2019 22.3 (17:30) 8.6 (00:00) 15.4 6.94 (17:50) 3.06 (14:40) 0 0 0 0 0
05-10-2019 27.8 (18:20) 12.1 (00:00) 19.9 6.67 (23:50) 3.89 (13:50) 0 0 0 0 0
13-10-2019 27.7 (16:50) 14.2 (00:00) 21 6.67 (16:10) 3.06 (14:20) 0 0 0 0 0
23-09-2019 26.9 (18:40) 13 (00:00) 19.9 6.67 (17:40) 3.33 (16:30) 0 0 0 0 0
19-09-2019 31.2 (17:00) 16.2 (00:00) 23.7 6.67 (00:20) 3.61 (01:00) 0 0 0 0 0
29-09-2019 32.2 (17:40) 13.5 (00:00) 22.9 6.39 (16:10) 3.89 (17:20) 0 0 0 0 0
06-10-2019 31.2 (17:50) 10.5 (00:00) 20.9 6.11 (00:20) 4.17 (00:20) 0 0 0 0 0
08-10-2019 34.6 (16:50) 13.3 (00:00) 23.9 6.11 (17:30) 4.17 (21:20) 0 0 0 0 0
09-10-2019 30.9 (17:40) 14.8 (00:00) 22.8 6.11 (13:00) 3.89 (13:00) 0 0 0 0 0
27-09-2019 32.2 (18:00) 14.2 (00:00) 23.2 6.11 (17:40) 3.33 (18:50) 0 0 0 0 0
04-10-2019 28.9 (18:20) 14.2 (00:00) 21.5 5.83 (01:20) 3.89 (00:20) 0 0 0 0 0
28-09-2019 32.7 (16:50) 14.2 (00:00) 23.5 5.56 (17:00) 2.78 (16:00) 0 0 0 0 0
26-09-2019 30.4 (17:00) 13.6 (00:00) 22 5.28 (17:40) 3.33 (22:30) 0 0 0 0 0
10-10-2019 31 (17:20) 11.4 (00:00) 21.2 5 (17:30) 3.61 (18:20) 0 0 0 0 0
07-10-2019 33.8 (17:30) 14.3 (00:00) 24 4.72 (16:20) 3.06 (16:20) 0 0 0 0 0
15-10-2019 20.3 (16:40) 7.8 (00:00) 14 4.72 (14:40) 2.78 (18:40) 0 0 0 0 0
11-10-2019 30.4 (15:20) 14.5 (00:00) 22.4 4.44 (18:20) 2.5 (18:40) 0 0 0 0 0

Gráficas

Temp. máximas Temp. mínimas Temp. medias Precipitaciones Rachas de viento máximas Velocidades máximas media en intervalos de 10 minutos

Datos horarios

Fecha y hora oficial Temperatura (ºC) Velocidad del viento (km/h) Dirección del viento Racha (km/h) Dirección de racha Precipitación (mm) Presión (hPa) Tendencia (hPa) Humedad (%)
2019-10-17 23:00:00 18.6 4 Sudoeste 13 Sur 0 997.5 0.9 88
2019-10-17 22:00:00 18.7 5 Sudoeste 14 Sur 0 997.4 1 88
2019-10-17 21:00:00 18.7 6 Sudoeste 16 Sur 0 997.2 0.9 89
2019-10-17 20:00:00 18.5 7 Sur 18 Oeste 0 996.6 0.1 89
2019-10-17 19:00:00 20.7 10 Sudoeste 27 Oeste 0 996.4 -0.7 73
2019-10-17 18:00:00 21.2 9 Sudoeste 22 Sudoeste 0 996.3 -0.9 69
2019-10-17 17:00:00 20.9 6 Sudoeste 17 Sur 0.2 996.5 -1.4 73
2019-10-17 16:00:00 19.3 5 Sudoeste 24 Sudoeste 0.4 997.1 -1.1 82
2019-10-17 15:00:00 21.3 10 Sudoeste 24 Sudoeste 0 997.2 -1.1 64
2019-10-17 14:00:00 19.8 10 Sur 25 Sur 0 997.9 -0.3 72
2019-10-17 13:00:00 19.3 8 Sudoeste 19 Sur 0 998.2 0.1 72
2019-10-17 12:00:00 18.5 8 Sudoeste 16 Sur 0 998.3 1 75
2019-10-17 11:00:00 15.8 9 Este 12 Este 0 998.2 1.2 81
2019-10-17 10:00:00 15.3 5 Este 8 Nordeste 0 998.1 1.4 84
2019-10-17 09:00:00 15.3 4 Sur 12 Sur 0 997.3 0.5 82
2019-10-17 08:00:00 14.4 4 Este 8 Sudeste 0 997 0 82
2019-10-17 07:00:00 14.2 0 Calma 13 Noroeste 0 996.7 -0.5 83
2019-10-17 06:00:00 13.4 3 Sudeste 11 Sur 0 996.8 -0.7 84
2019-10-17 05:00:00 13 4 Sudoeste 10 Sudoeste 0 997 -0.2 84
2019-10-17 04:00:00 12 2 Este 8 Sudoeste 0 997.2 -0.3 82
2019-10-17 03:00:00 12.5 2 Oeste 9 Sur 0 997.5 -0.3 80
2019-10-17 02:00:00 13.8 5 Sur 10 Sudoeste 0 997.2 -0.5 75
2019-10-17 01:00:00 14.5 5 Sudoeste 9 Sur 0 997.5 0.1 71
2019-10-17 00:00:00 15 4 Sudoeste 9 Sudoeste 0 997.8 0.4 69
2019-10-16 23:00:00 15.5 5 Sudoeste 12 Sudoeste 0 997.7 0.8 63
2019-10-16 22:00:00 16.8 5 Sur 11 Sur 0 997.4 0.5 58
2019-10-16 21:00:00 17.4 5 Sudoeste 10 Sudoeste 0 997.4 0.4 55
2019-10-16 20:00:00 19 3 Sudoeste 10 Sudoeste 0 996.9 0.1 50
2019-10-16 19:00:00 20.6 5 Sudoeste 21 Oeste 0 996.9 -0.5 43
2019-10-16 18:00:00 22 10 Oeste 25 Oeste 0 997 -1.3 37
2019-10-16 17:00:00 21.9 6 Sudoeste 17 Oeste 0 996.8 -2.6 38
2019-10-16 16:00:00 22 5 Sudoeste 16 Oeste 0 997.4 -2.5 40
2019-10-16 15:00:00 20.1 8 Oeste 18 Noroeste 0 998.3 -- 46
2019-10-16 14:00:00 19.6 5 Oeste 13 Sudeste 0 999.4 -1.1 47
2019-10-16 13:00:00 19 5 Sur -- -- 0 999.9 -0.5 52
2019-10-16 12:00:00 -- -- -- -- -- -- -- -- --
2019-10-16 11:00:00 13.4 5 Nordeste 7 Nordeste 0 1000.5 1 80
2019-10-16 10:00:00 10.5 3 Este 5 Nordeste 0 1000.4 1 90
2019-10-16 09:00:00 8.6 3 Sudeste 6 Sur 0 999.7 0.3 92
2019-10-16 08:00:00 9.1 3 Sudeste 5 Sudeste 0 999.5 0 91
2019-10-16 07:00:00 9.2 2 Sudoeste 4 Oeste 0 999.4 -0.4 89
2019-10-16 06:00:00 10.5 3 Oeste 6 Sudoeste 0 999.4 -0.7 85
2019-10-16 05:00:00 11.2 5 Sur 8 Sudoeste 0 999.5 -0.8 83
2019-10-16 04:00:00 11.9 4 Sudoeste 8 Sudoeste 0 999.8 -0.7 78
2019-10-16 03:00:00 12.1 4 Sur 9 Sudoeste 0 1000.1 -0.1 75
2019-10-16 02:00:00 12.6 3 Sudoeste 6 Sudoeste 0 1000.3 0.2 74
2019-10-16 01:00:00 12.2 4 Oeste 16 Oeste 0 1000.5 0.6 81
2019-10-16 00:00:00 12.7 0 Calma 9 Sur 0 1000.2 0.6 76
2019-10-15 23:00:00 14.2 7 Sur 11 Sur 0 1000.1 0.6 68
2019-10-15 22:00:00 14.8 4 Sudoeste 4 Sudoeste 0 999.9 0.6 67
2019-10-15 21:00:00 16.3 3 Sudoeste 5 Sudoeste 0 999.6 0.2 59
2019-10-15 20:00:00 17.9 4 Oeste 13 Oeste 0 999.5 -0.2 51
2019-10-15 19:00:00 19.3 9 Oeste 15 Oeste 0 999.3 -0.6 43
2019-10-15 18:00:00 19.8 3 Oeste 12 Oeste 0 999.4 -1.3 44
2019-10-15 17:00:00 19.4 5 Noroeste 14 Sudoeste 0 999.7 -1.5 47
2019-10-15 16:00:00 19.4 3 Oeste 17 Oeste 0 999.9 -1.8 46
2019-10-15 15:00:00 18.5 6 Noroeste 17 Noroeste 0 1000.7 -1 50
2019-10-15 14:00:00 18.1 5 Oeste 15 Noroeste 0 1001.2 -0.6 53
2019-10-15 13:00:00 16.7 6 Noroeste 12 Oeste 0 1001.7 0.4 63
2019-10-15 12:00:00 14.8 5 Noroeste 11 Noroeste 0 1001.7 1.2 75
2019-10-15 11:00:00 13.1 5 Oeste 9 Noroeste 0 1001.8 1.3 81
2019-10-15 10:00:00 10.5 4 Sudoeste 8 Sudoeste 0 1001.3 1 88
2019-10-15 09:00:00 8.5 3 Sudoeste 6 Sudoeste 0 1000.5 0.5 94
2019-10-15 08:00:00 7.8 3 Sur 6 Oeste 0 1000.5 0.8 94
2019-10-15 07:00:00 8.4 2 Oeste 6 Oeste 0 1000.3 0.6 90
2019-10-15 06:00:00 9.2 5 Oeste 11 Sudoeste 0 1000 0.1 88
2019-10-15 05:00:00 9.7 3 Sudoeste 10 Sudoeste 0 999.7 0.1 86
2019-10-15 04:00:00 10.2 3 Sudoeste 11 Sur 0 999.7 0.2 85
2019-10-15 03:00:00 10.6 5 Sudoeste 10 Sudoeste 0 999.9 0.8 83
2019-10-15 02:00:00 11.2 4 Sudoeste 9 Sudoeste 0 999.6 1 81
2019-10-15 01:00:00 12.2 3 Oeste 13 Oeste 0 999.5 1.8 76
2019-10-15 00:00:00 12.4 6 Oeste 17 Oeste 0 999.1 2.3 75
2019-10-14 23:00:00 12.6 10 Oeste 17 Oeste 0 998.6 2.6 74
2019-10-14 22:00:00 14 11 Oeste 18 Noroeste 0 997.7 2.4 70
2019-10-14 21:00:00 14.6 7 Oeste 17 Oeste 0 996.8 2.1 72
2019-10-14 20:00:00 15.3 4 Sudoeste 13 Sudoeste 0 996 1.5 81
2019-10-14 19:00:00 16.7 6 Sudoeste 27 Oeste 0 995.3 1.1 69
2019-10-14 18:00:00 16.9 7 Sudoeste 18 Sudoeste 0 994.7 0.8 79
2019-10-14 17:00:00 16.3 6 Sudoeste 19 Oeste 0.2 994.5 1.4 82
2019-10-14 16:00:00 16 10 Oeste 29 Oeste 1 994.2 0.4 87
2019-10-14 15:00:00 16.2 16 Oeste 51 Oeste 3.8 993.9 -0.1 86
2019-10-14 14:00:00 20.2 10 Sudoeste 27 Sur 0 993.1 -0.6 58
2019-10-14 13:00:00 19.8 10 Sudoeste 32 Sudoeste 0 993.8 0.5 60
2019-10-14 12:00:00 18.1 10 Sudoeste 22 Sur 0 994 1.9 70
2019-10-14 11:00:00 16.3 8 Sudoeste 21 Sur 0 993.7 2.3 79
2019-10-14 10:00:00 15.5 7 Sudoeste 16 Sudoeste 0 993.3 2.8 84
2019-10-14 09:00:00 14.9 5 Sudoeste 22 Oeste 1.6 992.1 2.5 90
2019-10-14 08:00:00 15.9 10 Oeste 24 Sudoeste 0 991.4 2.9 85
2019-10-14 07:00:00 16.6 12 Oeste 29 Sudoeste 0 990.5 1.5 87
2019-10-14 06:00:00 17.5 11 Sudoeste 33 Sudoeste 0.8 989.6 0.2 84
2019-10-14 05:00:00 17.8 12 Sur 24 Sur 0 988.5 -0.8 77
2019-10-14 04:00:00 17.9 5 Sudoeste 14 Oeste 0 989 -0.9 73
2019-10-14 03:00:00 18.1 9 Sudoeste 17 Sudoeste 0 989.4 -0.5 72
2019-10-14 02:00:00 18.9 3 Sudoeste 8 Sudoeste 0 989.3 -0.8 67
2019-10-14 01:00:00 20 9 Oeste 21 Oeste 0 989.9 0 62
2019-10-14 00:00:00 21.7 5 Sudoeste 16 Sudoeste 0 989.9 0 49
2019-10-13 23:00:00 21.5 8 Sur 13 Sur 0 990.1 0.2 49
2019-10-13 22:00:00 21.5 5 Sur 8 Sur 0 989.9 -0.1 53
2019-10-13 21:00:00 22.4 2 Este 5 Noroeste 0 989.9 -0.4 51
2019-10-13 20:00:00 24.3 4 Oeste 11 Oeste 0 989.9 -1.1 45
2019-10-13 19:00:00 26.4 6 Sudoeste 17 Oeste 0 990 -1.4 39
2019-10-13 18:00:00 27.4 8 Sudoeste 24 Sudoeste 0 990.3 -2 35
2019-10-13 17:00:00 27.3 9 Sudoeste 24 Sudoeste 0 991 -2.5 35
2019-10-13 16:00:00 27.2 7 Sur 22 Sur 0 991.4 -2.7 38
2019-10-13 15:00:00 25.8 8 Oeste 19 Sur 0 992.3 -2.3 42
2019-10-13 14:00:00 25.2 7 Sudeste 16 Sur 0 993.5 -1.1 45
2019-10-13 13:00:00 23.7 8 Sudeste 17 Sudeste 0 994.1 -0.4 49
2019-10-13 12:00:00 21.8 8 Sudeste 23 Sudeste 0 994.6 0.5 55
2019-10-13 11:00:00 20.3 7 Sudeste 15 Sudeste 0 994.6 0.8 60
2019-10-13 10:00:00 16.9 5 Sudeste 11 Sudeste 0 994.5 0.8 71
2019-10-13 09:00:00 15 5 Sudeste 8 Sur 0 994.1 0.7 78
2019-10-13 08:00:00 14.6 3 Sudeste 4 Sudeste 0 993.8 0.5 79
2019-10-13 07:00:00 14.7 3 Norte 5 Este 0 993.7 0.3 76
2019-10-13 06:00:00 14.9 4 Este 5 Sudeste 0 993.4 -0.1 76
2019-10-13 05:00:00 15.4 3 Sudoeste 6 Sudoeste 0 993.3 -0.2 74
2019-10-13 04:00:00 15.6 3 Sur 5 Sur 0 993.4 -0.2 72
2019-10-13 03:00:00 16.5 2 Sur 13 Oeste 0 993.5 0.1 70
2019-10-13 02:00:00 18 7 Oeste 14 Oeste 0 993.5 0.6 64
2019-10-13 01:00:00 18.5 5 Sudoeste 11 Sudoeste 0 993.6 1.5 61
2019-10-13 00:00:00 19.8 5 Sudoeste 14 Oeste 0 993.4 2 59
2019-10-12 23:00:00 21.2 7 Sudoeste 20 Oeste 0 992.9 2 57
2019-10-12 22:00:00 23.2 11 Oeste 24 Oeste 0 992.1 1.4 55
2019-10-12 21:00:00 25.2 8 Sudoeste 24 Sudoeste 0 991.4 0.9 49
2019-10-12 20:00:00 26.6 12 Sur 27 Sur 0 990.9 0.7 43
2019-10-12 19:00:00 28.4 10 Sudoeste 36 Sudoeste 0 990.7 0.4 35
2019-10-12 18:00:00 30.1 20 Sur 45 Sur 0 990.5 -0.9 31
2019-10-12 17:00:00 31.4 17 Sur 36 Sudoeste 0 990.2 -2.6 28
2019-10-12 16:00:00 31.5 18 Sur 32 Sur 0 990.3 -3.1 30
2019-10-12 15:00:00 30.1 8 Sur 18 Sur 0 991.4 -2.4 37
2019-10-12 14:00:00 27 3 Sur 12 Sur 0 992.8 -0.7 45
2019-10-12 13:00:00 25.7 4 Oeste 11 Oeste 0 993.4 -0.1 52
2019-10-12 12:00:00 24 4 Sudoeste 8 Sudeste 0 993.8 1 59
2019-10-12 11:00:00 22.4 6 Este 14 Este 0 993.5 0.8 63
2019-10-12 10:00:00 19.3 3 Sudeste 7 Sudeste 0 993.5 0.8 74
2019-10-12 09:00:00 17.8 4 Nordeste 6 Este 0 992.8 -0.4 77
2019-10-12 08:00:00 18.4 4 Este 8 Este 0 992.7 -0.1 75
2019-10-12 07:00:00 19.6 3 Sudoeste 8 Oeste 0 992.7 -0.7 72
2019-10-12 06:00:00 20.1 3 Sur 12 Noroeste 0 993.2 -0.5 71
2019-10-12 05:00:00 20.5 4 Sudeste 8 Sudeste 0 992.8 -1.2 68
2019-10-12 04:00:00 20.6 5 Sudeste 8 Sudeste 0 993.4 -0.9 65
2019-10-12 03:00:00 21 2 Sudeste 8 Oeste 0 993.7 -0.9 64
2019-10-12 02:00:00 21.4 4 Noroeste 12 Oeste 0 994 -0.7 62
2019-10-12 01:00:00 21.9 4 Oeste 8 Noroeste 0 994.3 0.1 58
2019-10-12 00:00:00 22.3 4 Norte 12 Oeste 0 994.6 1 53
2019-10-11 23:00:00 23.3 8 Oeste 15 Oeste 0 994.7 1.2 51
2019-10-11 22:00:00 23.9 4 Sudoeste 12 Oeste 0 994.2 0.6 52
2019-10-11 21:00:00 24.7 4 Norte 10 Noroeste 0 993.6 0 48
2019-10-11 20:00:00 26.6 6 Oeste 14 Oeste 0 993.5 0 41
2019-10-11 19:00:00 27.6 6 Oeste 16 Oeste 0 993.6 -0.5 38
2019-10-11 18:00:00 29.1 5 Sudoeste 12 Oeste 0 993.6 -1.3 37
2019-10-11 17:00:00 29.5 4 Este 10 Noroeste 0 993.5 -2.3 31
2019-10-11 16:00:00 30.1 4 Sudoeste 13 Oeste 0 994.1 -2.7 33
2019-10-11 15:00:00 29.3 4 Sur 14 Sur 0 994.9 -2.2 36
2019-10-11 14:00:00 29.2 7 Sudeste 15 Sur 0 995.8 -1.5 35
2019-10-11 13:00:00 26.4 3 Nordeste 12 Nordeste 0 996.8 0.1 39
2019-10-11 12:00:00 24.4 5 Este 12 Este 0 997.1 0.8 43
2019-10-11 11:00:00 21.2 6 Sudeste 10 Este 0 997.3 1 51
2019-10-11 10:00:00 17.4 4 Este 7 Este 0 996.7 0.9 62
2019-10-11 09:00:00 14.8 2 Sudeste 4 Este 0 996.3 1 73
2019-10-11 08:00:00 15.1 3 Sudoeste 6 Oeste 0 996.3 1 73
2019-10-11 07:00:00 14.8 3 Oeste 4 Oeste 0 995.8 0.5 76
2019-10-11 06:00:00 15.4 2 Nordeste 4 Sudeste 0 995.3 0 72
2019-10-11 05:00:00 16.2 2 Noroeste 6 Noroeste 0 995.3 -0.1 71
2019-10-11 04:00:00 16.7 0 Calma 5 Oeste 0 995.3 -0.1 67
2019-10-11 03:00:00 17.8 0 Calma 4 Sudeste 0 995.3 0 62
2019-10-11 02:00:00 19 3 Sudeste 5 Sudoeste 0 995.4 0.5 57
2019-10-11 01:00:00 19.6 5 Sudoeste 9 Noroeste 0 995.4 0.9 55
2019-10-11 00:00:00 20.8 2 Noroeste 11 Sur 0 995.3 1.1 49
2019-10-10 23:00:00 22.5 3 Este 12 Sur 0 994.9 0.9 47
2019-10-10 22:00:00 24 4 Sur 9 Sur 0 994.5 0.6 43
2019-10-10 21:00:00 24.8 4 Este 7 Sudeste 0 994.2 0.2 41
2019-10-10 20:00:00 28 3 Sudoeste 15 Noroeste 0 994 -0.2 40
2019-10-10 19:00:00 29.9 12 Noroeste 18 Noroeste 0 993.9 -0.7 31
2019-10-10 18:00:00 30.8 9 Noroeste 18 Noroeste 0 994 -1.2 28
2019-10-10 17:00:00 30.7 7 Noroeste 15 Noroeste 0 994.2 -1.8 26
2019-10-10 16:00:00 30.2 5 Noroeste 13 Noroeste 0 994.6 -2 25
2019-10-10 15:00:00 29.4 5 Sur 12 Nordeste 0 995.2 -1.6 26
2019-10-10 14:00:00 26.7 5 Nordeste 14 Este 0 996 -0.8 29
2019-10-10 13:00:00 24 6 Este 12 Este 0 996.6 0.2 36
2019-10-10 12:00:00 20.4 8 Nordeste 12 Nordeste 0 996.8 1 44
2019-10-10 11:00:00 17 4 Este 7 Nordeste 0 996.8 1.3 56
2019-10-10 10:00:00 13.3 2 Nordeste 4 Nordeste 0 996.4 1.2 72
2019-10-10 09:00:00 11.6 0 Calma 5 Sudoeste 0 995.8 0.7 74
2019-10-10 08:00:00 11.8 0 Calma 5 Sudoeste 0 995.5 0.6 75
2019-10-10 07:00:00 13.1 3 Oeste 10 Oeste 0 995.2 0 70
2019-10-10 06:00:00 13.4 6 Oeste 11 Oeste 0 995.1 -0.2 70
2019-10-10 05:00:00 14.4 8 Oeste 14 Oeste 0 994.9 -0.5 66
2019-10-10 04:00:00 14.8 9 Oeste 15 Oeste 0 995.2 -0.2 64
2019-10-10 03:00:00 16.2 6 Sudoeste 10 Sudoeste 0 995.3 -0.1 57
2019-10-10 02:00:00 17.1 4 Sudoeste 13 Oeste 0 995.4 0.4 52
2019-10-10 01:00:00 18.2 9 Oeste 17 Oeste 0 995.4 0.5 51
2019-10-10 00:00:00 18.8 6 Oeste 14 Oeste 0 995.4 1.2 47
2019-10-09 23:00:00 20 11 Oeste 18 Noroeste 0 995 1.4 43
2019-10-09 22:00:00 22.1 10 Oeste 17 Oeste 0 994.9 1.5 36
2019-10-09 21:00:00 24.9 8 Oeste 19 Oeste 0 994.2 0.9 30
2019-10-09 20:00:00 27.7 9 Oeste 16 Oeste 0 993.6 0 22
2019-10-09 19:00:00 29.6 6 Oeste 15 Oeste 0 993.4 -0.7 28
2019-10-09 18:00:00 30.7 9 Oeste 21 Noroeste 0 993.3 -1.2 27
2019-10-09 17:00:00 30.7 9 Noroeste 19 Oeste 0 993.6 -1.9 27
2019-10-09 16:00:00 29.9 11 Oeste 21 Noroeste 0 994.1 -1.9 34
2019-10-09 15:00:00 28.8 8 Noroeste 18 Oeste 0 994.5 -1.7 40
2019-10-09 14:00:00 27.5 8 Oeste 21 Noroeste 0 995.5 -0.6 44
2019-10-09 13:00:00 25.2 14 Noroeste 22 Noroeste 0 996 0.2 50
2019-10-09 12:00:00 22.4 10 Oeste 17 Noroeste 0 996.2 0.7 61
2019-10-09 11:00:00 19.4 10 Oeste 16 Noroeste 0 996.1 0.9 71
2019-10-09 10:00:00 17.1 8 Oeste 15 Oeste 0 995.8 1.2 80
2019-10-09 09:00:00 15 8 Oeste 19 Oeste 0 995.5 0.9 88
2019-10-09 08:00:00 15.3 10 Oeste 18 Oeste 0 995.2 0.6 88
2019-10-09 07:00:00 16 8 Oeste 18 Oeste 0 994.6 0.1 86
2019-10-09 06:00:00 16.6 9 Oeste 18 Noroeste 0 994.6 0.1 85
2019-10-09 05:00:00 17.9 10 Oeste 17 Oeste 0 994.6 0 83
2019-10-09 04:00:00 18.8 9 Oeste 22 Oeste 0 994.5 -0.3 82
2019-10-09 03:00:00 20.1 8 Oeste 19 Oeste 0 994.5 -0.2 77
2019-10-09 02:00:00 21.1 10 Oeste 22 Oeste 0 994.6 0.3 74
2019-10-09 01:00:00 22.1 8 Oeste 19 Oeste 0 994.8 1 69
2019-10-09 00:00:00 23.3 9 Oeste 18 Oeste 0 994.7 1.2 64
2019-10-08 23:00:00 24.2 8 Oeste 22 Oeste 0 994.3 1.5 57
2019-10-08 22:00:00 25.8 14 Oeste 22 Oeste 0 993.8 1 51
2019-10-08 21:00:00 28 12 Oeste 20 Noroeste 0 993.5 0.5 30
2019-10-08 20:00:00 30.8 2 Oeste 8 Sudoeste 0 992.8 -0.4 28
2019-10-08 19:00:00 33.1 3 Sudoeste 15 Noroeste 0 992.8 -0.9 22
2019-10-08 18:00:00 34.3 11 Noroeste 22 Noroeste 0 993 -1.2 19
2019-10-08 17:00:00 34.3 7 Oeste 17 Noroeste 0 993.2 -2.1 19
2019-10-08 16:00:00 33.9 6 Oeste 14 Noroeste 0 993.7 -2.3 20
2019-10-08 15:00:00 32.4 5 Noroeste 12 Noroeste 0 994.2 -2.4 21
2019-10-08 14:00:00 30.1 4 Nordeste 12 Nordeste 0 995.3 -1.4 25
2019-10-08 13:00:00 27.3 5 Este 10 Nordeste 0 996 -0.4 30
2019-10-08 12:00:00 23.9 4 Nordeste 14 Nordeste 0 996.6 0.6 37
2019-10-08 11:00:00 21.1 4 Este 10 Este 0 996.7 1.1 42
2019-10-08 10:00:00 17.3 4 Este 6 Este 0 996.4 1.1 56
2019-10-08 09:00:00 13.6 0 Calma 6 Este 0 996 1.1 73
2019-10-08 08:00:00 13.9 0 Calma 5 Norte 0 995.6 0.7 69
2019-10-08 07:00:00 14.7 3 Oeste 5 Este 0 995.3 0.2 63
2019-10-08 06:00:00 16.3 2 Nordeste 6 Sudoeste 0 994.9 -0.5 57
2019-10-08 05:00:00 17.8 0 Calma 8 Oeste 0 994.9 -0.5 55
2019-10-08 04:00:00 19.4 5 Oeste 11 Oeste 0 995.1 -0.5 48
2019-10-08 03:00:00 20 5 Sudoeste 10 Oeste 0 995.4 -0.1 45
2019-10-08 02:00:00 20.9 4 Oeste 8 Sudoeste 0 995.4 -0.2 44
2019-10-08 01:00:00 22.3 5 Oeste 9 Oeste 0 995.6 0.5 40
2019-10-08 00:00:00 23.5 8 Oeste 13 Oeste 0 995.5 0.8 36
2019-10-07 23:00:00 24.1 6 Oeste 14 Oeste 0 995.6 1.2 33
2019-10-07 22:00:00 25.5 6 Oeste 14 Noroeste 0 995.1 0.8 28
2019-10-07 21:00:00 26.9 2 Sur 10 Nordeste 0 994.7 0.2 34
2019-10-07 20:00:00 30.5 5 Sur 9 Sur 0 994.4 -0.5 28
2019-10-07 19:00:00 32.7 4 Sur 12 Este 0 994.3 -1 22
2019-10-07 18:00:00 33.8 5 Este 14 Este 0 994.5 -1.4 21
2019-10-07 17:00:00 33.2 9 Sudeste 17 Este 0 994.9 -1.8 23
2019-10-07 16:00:00 32.3 8 Nordeste 14 Sudeste 0 995.3 -2 23
2019-10-07 15:00:00 31 7 Este 16 Este 0 995.9 -1.6 26
2019-10-07 14:00:00 30 10 Este 16 Este 0 996.7 -1.2 29
2019-10-07 13:00:00 27.6 6 Este 14 Norte 0 997.3 -0.1 37
2019-10-07 12:00:00 24.3 4 Oeste 10 Oeste 0 997.5 0.2 48
2019-10-07 11:00:00 21.1 4 Oeste 10 Oeste 0 997.9 1 63
2019-10-07 10:00:00 17 5 Oeste 13 Oeste 0 997.4 1 79
2019-10-07 09:00:00 14.6 3 Sudoeste 7 Oeste 0 997.3 1.2 85
2019-10-07 08:00:00 15.2 6 Sudoeste 10 Oeste 0 996.9 0.7 84
2019-10-07 07:00:00 15.3 5 Sudoeste 10 Oeste 0 996.4 -0.3 84
2019-10-07 06:00:00 15.6 5 Oeste 10 Noroeste 0 996.1 -1.1 81
2019-10-07 05:00:00 17 4 Oeste 11 Oeste 0 996.2 -1.1 75
2019-10-07 04:00:00 18 6 Oeste 12 Oeste 0 996.7 -1 72
2019-10-07 03:00:00 18.7 7 Sudoeste 15 Oeste 0 997.2 -0.5 66
2019-10-07 02:00:00 19.4 6 Sudoeste 13 Oeste 0 997.3 -0.1 62
2019-10-07 01:00:00 20.4 7 Oeste 11 Oeste 0 997.7 1 57
2019-10-07 00:00:00 21.6 8 Oeste 17 Oeste 0 997.7 1.3 51
2019-10-06 23:00:00 22.6 6 Oeste 15 Oeste 0 997.4 1.3 43
2019-10-06 22:00:00 24.8 7 Oeste 15 Oeste 0 996.7 0.7 32
2019-10-06 21:00:00 25.6 7 Oeste 13 Oeste 0 996.4 0.2 34
2019-10-06 20:00:00 27.7 4 Sur 6 Sudoeste 0 996.1 -0.4 34
2019-10-06 19:00:00 29.8 5 Sudoeste 12 Sudoeste 0 996 -1.1 28
2019-10-06 18:00:00 31 9 Oeste 18 Oeste 0 996.2 -1.4 25
2019-10-06 17:00:00 30.4 6 Noroeste 18 Noroeste 0 996.5 -1.9 25
2019-10-06 16:00:00 29 6 Noroeste 19 Norte 0 997.1 -1.7 27
2019-10-06 15:00:00 27.8 5 Noroeste 15 Nordeste 0 997.6 -1.3 31
2019-10-06 14:00:00 25.4 5 Norte 14 Noroeste 0 998.4 -0.4 38
2019-10-06 13:00:00 22.4 5 Norte 13 Noroeste 0 998.8 0.1 48
2019-10-06 12:00:00 19.9 3 Norte 10 Norte 0 998.9 0.6 57
2019-10-06 11:00:00 17.6 4 Sudeste 9 Este 0 998.8 1.5 66
2019-10-06 10:00:00 13.7 0 Calma 4 Sur 0 998.7 1.7 81
2019-10-06 09:00:00 10.8 3 Oeste 7 Oeste 0 998.3 1.7 90
2019-10-06 08:00:00 11.4 3 Sudoeste 10 Sudoeste 0 997.3 0.7 88
2019-10-06 07:00:00 11.6 4 Sudoeste 9 Sur 0 997 0.4 86
2019-10-06 06:00:00 12 5 Sur 9 Sudoeste 0 996.6 0.1 84
2019-10-06 05:00:00 13.1 3 Sudoeste 8 Noroeste 0 996.6 -0.2 81
2019-10-06 04:00:00 14.5 6 Oeste 15 Oeste 0 996.6 -0.4 76
2019-10-06 03:00:00 15.4 8 Oeste 18 Noroeste 0 996.5 -0.1 73
2019-10-06 02:00:00 16.4 6 Oeste 16 Oeste 0 996.8 0.9 69
2019-10-06 01:00:00 17.5 9 Oeste 22 Oeste 0 997 1.5 65
2019-10-06 00:00:00 18.8 11 Oeste 24 Oeste 0 996.6 1.5 55
2019-10-05 23:00:00 20.5 5 Oeste 16 Oeste 0 995.9 1.2 48
2019-10-05 22:00:00 21.7 10 Oeste 17 Oeste 0 995.5 0.8 45
2019-10-05 21:00:00 23.4 6 Oeste 9 Oeste 0 995.1 0.5 46
2019-10-05 20:00:00 25.6 4 Oeste 16 Oeste 0 994.7 0.1 42
2019-10-05 19:00:00 26.7 8 Oeste 19 Noroeste 0 994.7 -0.3 36
2019-10-05 18:00:00 27.5 8 Oeste 15 Sudoeste 0 994.6 -1.2 35
2019-10-05 17:00:00 26.9 8 Noroeste 17 Noroeste 0 994.6 -1.8 33
2019-10-05 16:00:00 25 8 Oeste 17 Noroeste 0 995 -1.7 42
2019-10-05 15:00:00 22.3 9 Oeste 22 Noroeste 0 995.8 -1 51
2019-10-05 14:00:00 20.8 12 Noroeste 21 Noroeste 0 996.4 -0.1 58
2019-10-05 13:00:00 19.5 9 Oeste 18 Noroeste 0 996.7 0.7 63
2019-10-05 12:00:00 18 9 Oeste 15 Noroeste 0 996.8 1.4 67
2019-10-05 11:00:00 16.3 8 Oeste 16 Sudoeste 0 996.5 1.5 75
2019-10-05 10:00:00 14.7 4 Oeste 13 Oeste 0 996 1.2 83
2019-10-05 09:00:00 13.6 6 Oeste 14 Oeste 0 995.4 0.7 88
2019-10-05 08:00:00 12.9 4 Sudoeste 12 Oeste 0 995 0.2 91
2019-10-05 07:00:00 12.1 4 Sudoeste 10 Sur 0 994.8 -0.1 90
2019-10-05 06:00:00 12.8 5 Sudoeste 12 Sudoeste 0 994.7 -0.5 86
2019-10-05 05:00:00 13.5 5 Sudoeste 10 Oeste 0 994.8 -0.5 83
2019-10-05 04:00:00 14.8 5 Oeste 14 Noroeste 0 994.9 -0.4 80
2019-10-05 03:00:00 16.1 9 Oeste 18 Oeste 0 995.2 0.3 74
2019-10-05 02:00:00 17.1 10 Oeste 21 Oeste 0 995.3 0.6 70
2019-10-05 01:00:00 18.1 13 Oeste 21 Oeste 0 995.3 0.9 67
2019-10-05 00:00:00 19.7 12 Oeste 20 Noroeste 0 994.9 0.8 62
2019-10-04 23:00:00 21.2 11 Oeste 21 Oeste 0 994.7 0.9 59
2019-10-04 22:00:00 22.3 9 Oeste 17 Oeste 0 994.4 0.8 56
2019-10-04 21:00:00 24.1 12 Oeste 19 Oeste 0 994.1 0.4 52
2019-10-04 20:00:00 26.9 4 Sudoeste 10 Sudoeste 0 993.8 -0.5 43
2019-10-04 19:00:00 28.1 4 Oeste 15 Oeste 0 993.6 -1.2 40
2019-10-04 18:00:00 28.7 5 Noroeste 16 Noroeste 0 993.7 -2.1 39
2019-10-04 17:00:00 28 8 Noroeste 19 Noroeste 0 994.3 -2.3 40
2019-10-04 16:00:00 27.1 6 Oeste 17 Noroeste 0 994.8 -2.5 44
2019-10-04 15:00:00 25.8 7 Noroeste 18 Noroeste 0 995.8 -2.1 49
2019-10-04 14:00:00 23.9 7 Oeste 12 Noroeste 0 996.6 -1.2 55
2019-10-04 13:00:00 21 4 Sudoeste 12 Oeste 0 997.3 -0.1 68
2019-10-04 12:00:00 18.1 6 Noroeste 14 Noroeste 0 997.9 0.8 81
2019-10-04 11:00:00 16.4 8 Noroeste 13 Noroeste 0 997.8 1 89
2019-10-04 10:00:00 15.7 5 Sudoeste 10 Oeste 0 997.4 0.8 91
2019-10-04 09:00:00 15.6 4 Sudoeste 13 Noroeste 0 997.1 0.5 93
2019-10-04 08:00:00 15.4 5 Oeste 19 Oeste 0 996.8 0.4 94
2019-10-04 07:00:00 14.7 6 Oeste 10 Sudoeste 0 996.6 0 90
2019-10-04 06:00:00 15.1 4 Sudoeste 12 Sudoeste 0 996.6 -0.3 87
2019-10-04 05:00:00 15.9 4 Sudoeste 14 Oeste 0 996.4 -0.9 84
2019-10-04 04:00:00 17.3 8 Oeste 13 Oeste 0 996.6 -0.7 80
2019-10-04 03:00:00 18.3 6 Oeste 19 Oeste 0 996.9 -0.3 76
2019-10-04 02:00:00 19.1 9 Oeste 21 Oeste 0 997.3 0.5 73
2019-10-04 01:00:00 19.8 10 Oeste 21 Oeste 0 997.3 0.7 70
2019-10-04 00:00:00 21 10 Oeste 25 Oeste 0 997.2 0.9 64
2019-10-03 23:00:00 21.9 9 Oeste 22 Oeste 0 996.8 0.6 60
2019-10-03 22:00:00 23.5 12 Oeste 23 Oeste 0 996.6 0.5 51
2019-10-03 21:00:00 24.4 8 Oeste 14 Oeste 0 996.3 0.2 26
2019-10-03 20:00:00 26.7 6 Oeste 21 Oeste 0 996.2 -0.3 18
2019-10-03 19:00:00 28.7 12 Oeste 23 Oeste 0 996.1 -1 20
2019-10-03 18:00:00 30 10 Oeste 25 Noroeste 0 996.1 -1.6 21
2019-10-03 17:00:00 29.9 12 Oeste 24 Oeste 0 996.5 -1.8 24
2019-10-03 16:00:00 28.6 12 Oeste 23 Oeste 0 997.1 -1.6 31
2019-10-03 15:00:00 27.2 12 Oeste 21 Oeste 0 997.7 -1.5 32
2019-10-03 14:00:00 26.1 9 Noroeste 17 Noroeste 0 998.3 -0.6 34
2019-10-03 13:00:00 23.6 6 Oeste 12 Oeste 0 998.7 -0.1 42
2019-10-03 12:00:00 20.4 5 Oeste 14 Oeste 0 999.2 0.7 53
2019-10-03 11:00:00 17.5 7 Oeste 14 Noroeste 0 998.9 0.7 64
2019-10-03 10:00:00 14.4 5 Sudoeste 10 Sudoeste 0 998.8 1 76
2019-10-03 09:00:00 12.1 3 Sudoeste 10 Sudoeste 0 998.5 1.1 84
2019-10-03 08:00:00 12.4 5 Sudoeste 9 Sudoeste 0 998.2 1 82
2019-10-03 07:00:00 13.1 4 Oeste 12 Oeste 0 997.8 0.5 79
2019-10-03 06:00:00 13.7 7 Oeste 15 Oeste 0 997.4 0.1 77
2019-10-03 05:00:00 14.8 6 Oeste 16 Oeste 0 997.2 0 72
2019-10-03 04:00:00 15.2 7 Sudoeste 13 Oeste 0 997.3 -0.2 70
2019-10-03 03:00:00 16.1 6 Oeste 14 Oeste 0 997.3 -0.1 68
2019-10-03 02:00:00 17.3 9 Oeste 18 Oeste 0 997.2 0.2 63
2019-10-03 01:00:00 18.3 9 Oeste 18 Oeste 0 997.5 0.9 59
2019-10-03 00:00:00 18.9 10 Oeste 16 Oeste 0 997.4 1.2 55
2019-10-02 23:00:00 20.2 10 Oeste 18 Noroeste 0 997 1.3 48
2019-10-02 22:00:00 22.3 9 Oeste 16 Oeste 0 996.6 0.9 39
2019-10-02 21:00:00 23.7 9 Oeste 15 Oeste 0 996.2 0.5 34
2019-10-02 20:00:00 25.8 6 Oeste 22 Noroeste 0 995.7 -0.4 28
2019-10-02 19:00:00 27.5 13 Oeste 23 Noroeste 0 995.7 -0.7 24
2019-10-02 18:00:00 29.2 10 Oeste 25 Noroeste 0 995.7 -1 21
2019-10-02 17:00:00 28.4 11 Oeste 22 Noroeste 0 996.1 -1.5 24
2019-10-02 16:00:00 27.2 11 Oeste 22 Oeste 0 996.4 -1.9 29
2019-10-02 15:00:00 25.7 9 Oeste 20 Sudoeste 0 996.7 -1.5 33
2019-10-02 14:00:00 24 8 Oeste 19 Oeste 0 997.6 -0.6 38
2019-10-02 13:00:00 21.7 8 Oeste 17 Noroeste 0 998.3 0.7 48
2019-10-02 12:00:00 19.3 9 Oeste 18 Oeste 0 998.2 1.1 59
2019-10-02 11:00:00 16.7 10 Oeste 22 Oeste 0 998.2 1.1 75
2019-10-02 10:00:00 13.8 12 Oeste 18 Oeste 0 997.6 0.8 92
2019-10-02 09:00:00 12.1 8 Oeste 12 Oeste 0 997.1 0.6 95
2019-10-02 08:00:00 12.6 6 Oeste 16 Oeste 0 997.1 0.7 90
2019-10-02 07:00:00 12.9 7 Oeste 13 Oeste 0 996.8 -0.2 91
2019-10-02 06:00:00 13.4 6 Sudoeste 13 Sudoeste 0 996.5 -0.6 89
2019-10-02 05:00:00 14.4 5 Sudoeste 15 Oeste 0 996.4 -0.8 87
2019-10-02 04:00:00 15.1 6 Oeste 18 Oeste 0 997 -0.5 85
2019-10-02 03:00:00 15.8 9 Oeste 21 Oeste 0 997.1 0.1 80
2019-10-02 02:00:00 17.1 10 Oeste 22 Oeste 0 997.2 0.7 73
2019-10-02 01:00:00 17.9 12 Oeste 28 Oeste 0 997.5 1.9 68
2019-10-02 00:00:00 19.2 14 Oeste 31 Oeste 0 997 1.9 63
2019-10-01 23:00:00 20.6 17 Oeste 27 Oeste 0 996.5 1.7 57
2019-10-01 22:00:00 21.6 12 Oeste 22 Noroeste 0 995.6 1.1 50
2019-10-01 21:00:00 23.3 11 Oeste 25 Oeste 0 995.1 0.8 45
2019-10-01 20:00:00 25.4 18 Oeste 30 Oeste 0 994.8 0.4 38
2019-10-01 19:00:00 26.9 18 Oeste 34 Noroeste 0 994.5 -0.2 36
2019-10-01 18:00:00 27.9 22 Oeste 33 Oeste 0 994.3 -0.6 35
2019-10-01 17:00:00 28.1 26 Noroeste 40 Noroeste 0 994.4 -0.9 35
2019-10-01 16:00:00 28 21 Oeste 35 Oeste 0 994.7 -1.1 38
2019-10-01 15:00:00 27.7 17 Oeste 42 Noroeste 0 994.9 -1.3 40
2019-10-01 14:00:00 26.3 12 Oeste 30 Oeste 0 995.3 -0.8 44
2019-10-01 13:00:00 24.1 10 Oeste 28 Noroeste 0 995.8 0.3 51
2019-10-01 12:00:00 22.6 17 Noroeste 28 Noroeste 0 996.2 1.6 56
2019-10-01 11:00:00 19.8 13 Oeste 26 Oeste 0 996.1 2 69
2019-10-01 10:00:00 17.8 11 Oeste 25 Oeste 0 995.5 1.9 79
2019-10-01 09:00:00 16.7 18 Oeste 28 Oeste 0 994.6 0.9 85
2019-10-01 08:00:00 17.4 13 Oeste 27 Oeste 0 994.1 0.7 83
2019-10-01 07:00:00 17.1 10 Oeste 22 Sudoeste 0 993.6 0 85
2019-10-01 06:00:00 17.4 8 Oeste 17 Oeste 0 993.7 0 84
2019-10-01 05:00:00 18.2 7 Oeste 20 Noroeste 0 993.4 -0.4 82
2019-10-01 04:00:00 19.1 7 Sudoeste 15 Oeste 0 993.6 -0.3 73
2019-10-01 03:00:00 19.2 5 Sudoeste 10 Sudoeste 0 993.7 0.2 65
2019-10-01 02:00:00 19.9 4 Sudoeste 10 Sudoeste 0 993.8 1 55
2019-10-01 01:00:00 21.2 4 Sudoeste 13 Sudoeste 0 993.9 1.2 51
2019-10-01 00:00:00 22.9 6 Sudoeste 18 Oeste 0 993.5 1.3 48
2019-09-30 23:00:00 24.1 7 Oeste 13 Oeste 0 992.8 0.6 43
2019-09-30 22:00:00 25.4 6 Oeste 13 Oeste 0 992.7 0.5 38
2019-09-30 21:00:00 27.2 4 Oeste 17 Oeste 0 992.2 -0.5 26
2019-09-30 20:00:00 30.1 10 Oeste 22 Oeste 0 992.2 -1 19
2019-09-30 19:00:00 32.1 11 Oeste 23 Oeste 0 992.2 -1.2 17
2019-09-30 18:00:00 33.6 10 Oeste 25 Oeste 0 992.7 -1.3 15
2019-09-30 17:00:00 33.7 13 Sudoeste 26 Oeste 0 993.2 -1.9 11
2019-09-30 16:00:00 32.1 10 Noroeste 23 Noroeste 0 993.4 -2.4 24
2019-09-30 15:00:00 30.5 5 Este 13 Noroeste 0 994 -2.2 29
2019-09-30 14:00:00 28.1 5 Sur 11 Nordeste 0 995.1 -1.4 36
2019-09-30 13:00:00 25.2 4 Este 10 Nordeste 0 995.8 -0.4 47
2019-09-30 12:00:00 22.3 5 Sudeste 10 Este 0 996.2 0.4 58
2019-09-30 11:00:00 19 4 Este 10 Nordeste 0 996.5 0.8 70
2019-09-30 10:00:00 15.8 3 Nordeste 4 Nordeste 0 996.2 0.8 81
2019-09-30 09:00:00 13.3 3 Sudeste 6 Este 0 995.8 0.3 84
2019-09-30 08:00:00 14.3 3 Sudoeste 8 Sudoeste 0 995.7 0.3 88
2019-09-30 07:00:00 14.4 3 Sudoeste 6 Sur 0 995.4 -0.5 84
2019-09-30 06:00:00 15.3 4 Sudoeste 7 Oeste 0 995.5 -0.7 78
2019-09-30 05:00:00 16.2 5 Oeste 15 Oeste 0 995.4 -0.7 81
2019-09-30 04:00:00 16.9 5 Sudoeste 10 Sudoeste 0 995.9 -0.1 74
2019-09-30 03:00:00 18.5 6 Oeste 12 Oeste 0 996.2 0.4 66
2019-09-30 02:00:00 19.3 7 Oeste 12 Oeste 0 996.1 0.4 66
2019-09-30 01:00:00 20.1 4 Sudoeste 14 Sudoeste 0 996 0.6 47
2019-09-30 00:00:00 21.3 8 Sudoeste 14 Oeste 0 995.8 0.9 39
2019-09-29 23:00:00 22.3 6 Sudoeste 10 Sudoeste 0 995.7 1.1 26
2019-09-29 22:00:00 23.4 5 Sudoeste 9 Oeste 0 995.4 0.9 23
2019-09-29 21:00:00 25.4 6 Oeste 15 Oeste 0 994.9 0 20
2019-09-29 20:00:00 28.6 10 Noroeste 14 Noroeste 0 994.6 -0.8 23
2019-09-29 19:00:00 30.7 8 Noroeste 17 Noroeste 0 994.5 -1.2 24
2019-09-29 18:00:00 31.7 9 Noroeste 23 Oeste 0 994.9 -1.6 22
2019-09-29 17:00:00 31.8 10 Oeste 23 Noroeste 0 995.4 -2 21
2019-09-29 16:00:00 31.5 9 Oeste 20 Noroeste 0 995.7 -1.8 24
2019-09-29 15:00:00 29.8 10 Noroeste 18 Oeste 0 996.5 -1.3 26
2019-09-29 14:00:00 28.2 6 Oeste 14 Oeste 0 997.4 -0.3 31
2019-09-29 13:00:00 25.8 5 Oeste 13 Noroeste 0 997.5 0.3 42
2019-09-29 12:00:00 22 6 Oeste 11 Oeste 0 997.8 1.1 55
2019-09-29 11:00:00 18.9 4 Oeste 13 Noroeste 0 997.7 1.3 67
2019-09-29 10:00:00 15.7 9 Oeste 14 Noroeste 0 997.2 1.1 78
2019-09-29 09:00:00 13.9 4 Oeste 7 Oeste 0 996.7 0.8 85
2019-09-29 08:00:00 13.9 3 Oeste 5 Oeste 0 996.4 0.4 79
2019-09-29 07:00:00 15.3 3 Sudoeste 8 Sudoeste 0 996.1 0 74
2019-09-29 06:00:00 16.2 5 Oeste 11 Oeste 0 995.9 -0.3 77
2019-09-29 05:00:00 16.9 7 Oeste 14 Oeste 0 996 -0.2 70
2019-09-29 04:00:00 17.9 5 Oeste 9 Oeste 0 996.1 -0.2 57
2019-09-29 03:00:00 19.4 7 Oeste 15 Oeste 0 996.2 0.1 62
2019-09-29 02:00:00 20.3 8 Sudoeste 15 Oeste 0 996.2 0.4 51
2019-09-29 01:00:00 21.9 6 Oeste 15 Sudoeste 0 996.3 0.9 40
2019-09-29 00:00:00 22.6 4 Sudoeste 10 Sudoeste 0 996.1 1.3 39
2019-09-28 23:00:00 24.3 6 Oeste 11 Oeste 0 995.8 1 40
2019-09-28 22:00:00 24.8 8 Sudoeste 14 Sudoeste 0 995.4 0.6 34
2019-09-28 21:00:00 26.3 4 Sudoeste 7 Sudoeste 0 994.8 -0.1 32
2019-09-28 20:00:00 29.6 6 Noroeste 13 Oeste 0 994.8 -0.5 25
2019-09-28 19:00:00 31.2 9 Oeste 18 Oeste 0 994.8 -1.1 23
2019-09-28 18:00:00 32.7 8 Oeste 18 Noroeste 0 994.9 -1.5 20
2019-09-28 17:00:00 32.6 9 Noroeste 20 Noroeste 0 995.3 -2.1 21
2019-09-28 16:00:00 32 10 Oeste 16 Oeste 0 995.9 -2.2 22
2019-09-28 15:00:00 30.5 7 Nordeste 13 Nordeste 0 996.4 -2.3 27
2019-09-28 14:00:00 28.2 7 Nordeste 15 Nordeste 0 997.4 -1.3 35
2019-09-28 13:00:00 25.2 6 Nordeste 12 Nordeste 0 998.1 -0.2 45
2019-09-28 12:00:00 22 5 Nordeste 9 Nordeste 0 998.7 0.9 58
2019-09-28 11:00:00 18.9 3 Oeste 6 Noroeste 0 998.7 1.4 74
2019-09-28 10:00:00 16.4 3 Oeste 5 Oeste 0 998.3 1.2 85
2019-09-28 09:00:00 14.6 3 Sudoeste 5 Oeste 0 997.8 0.7 91
2019-09-28 08:00:00 14.6 4 Sudoeste 6 Sudoeste 0 997.3 0.1 89
2019-09-28 07:00:00 15.5 4 Sudoeste 10 Oeste 0 997.1 -0.2 89
2019-09-28 06:00:00 15.9 5 Oeste 12 Oeste 0 997.1 -0.3 88
2019-09-28 05:00:00 16.7 7 Oeste 12 Oeste 0 997.2 -0.4 84
2019-09-28 04:00:00 17.3 6 Oeste 12 Oeste 0 997.3 -0.4 81
2019-09-28 03:00:00 18.1 6 Oeste 13 Oeste 0 997.4 -0.1 75
2019-09-28 02:00:00 19.2 9 Oeste 13 Sudoeste 0 997.6 0.4 70
2019-09-28 01:00:00 19.8 7 Oeste 15 Oeste 0 997.7 1 66
2019-09-28 00:00:00 21.1 8 Oeste 17 Oeste 0 997.5 1.4 57
2019-09-27 23:00:00 22 10 Oeste 19 Oeste 0 997.2 1.5 42
2019-09-27 22:00:00 24.2 10 Oeste 18 Oeste 0 996.7 1.1 30
2019-09-27 21:00:00 25.8 10 Oeste 18 Oeste 0 996.1 0.3 26
2019-09-27 20:00:00 28.9 8 Oeste 19 Oeste 0 995.7 -0.3 21
2019-09-27 19:00:00 30.8 10 Oeste 19 Noroeste 0 995.6 -0.8 20
2019-09-27 18:00:00 32.2 8 Oeste 22 Oeste 0 995.8 -1.3 23
2019-09-27 17:00:00 31.5 6 Oeste 18 Noroeste 0 996 -1.9 25
2019-09-27 16:00:00 31.2 5 Noroeste 14 Oeste 0 996.4 -1.8 26
2019-09-27 15:00:00 30.3 7 Oeste 15 Sudoeste 0 997.1 -1.4 29
2019-09-27 14:00:00 28.6 6 Oeste 13 Oeste 0 997.9 -0.7 33
2019-09-27 13:00:00 25.8 6 Norte 11 Norte 0 998.2 -0.2 41
2019-09-27 12:00:00 22.7 3 Sudoeste 8 Oeste 0 998.5 0.5 51
2019-09-27 11:00:00 18.9 4 Oeste 12 Oeste 0 998.6 1 70
2019-09-27 10:00:00 15.7 7 Oeste 11 Noroeste 0 998.4 1.2 83
2019-09-27 09:00:00 14.6 6 Oeste 14 Oeste 0 998 0.6 86
2019-09-27 08:00:00 14.3 6 Oeste 12 Noroeste 0 997.6 0.3 86
2019-09-27 07:00:00 14.7 4 Sudoeste 14 Oeste 0 997.2 -0.2 86
2019-09-27 06:00:00 14.7 9 Oeste 16 Oeste 0 997.4 -0.1 86
2019-09-27 05:00:00 15.6 8 Oeste 17 Oeste 0 997.3 -0.1 83
2019-09-27 04:00:00 17.1 10 Oeste 15 Noroeste 0 997.4 0 76
2019-09-27 03:00:00 17.8 9 Oeste 14 Oeste 0 997.5 0.5 72
2019-09-27 02:00:00 18.8 5 Oeste 16 Oeste 0 997.4 0.6 64
2019-09-27 01:00:00 20.5 6 Oeste 15 Oeste 0 997.4 1.1 56
2019-09-27 00:00:00 21.1 6 Oeste 17 Oeste 0 997 1.1 51
2019-09-26 23:00:00 22.5 8 Oeste 17 Oeste 0 996.8 1.1 46
2019-09-26 22:00:00 24 7 Oeste 11 Noroeste 0 996.3 0.7 40
2019-09-26 21:00:00 25.9 4 Oeste 6 Oeste 0 995.9 0.2 37
2019-09-26 20:00:00 28.1 3 Sudoeste 8 Norte 0 995.7 -0.3 32
2019-09-26 19:00:00 29.2 3 Norte 14 Noroeste 0 995.6 -0.9 28
2019-09-26 18:00:00 30.2 8 Oeste 19 Norte 0 995.7 -1.1 25
2019-09-26 17:00:00 30.3 7 Oeste 17 Oeste 0 996 -1.6 25
2019-09-26 16:00:00 29.6 6 Oeste 16 Oeste 0 996.5 -1.7 29
2019-09-26 15:00:00 28.7 4 Sudoeste 12 Sudoeste 0 996.8 -1.7 30
2019-09-26 14:00:00 27 5 Oeste 10 Oeste 0 997.6 -1 38
2019-09-26 13:00:00 24.4 4 Sur 9 Sur 0 998.2 -0.1 47
2019-09-26 12:00:00 21.7 5 Sudoeste 11 Noroeste 0 998.5 0.9 58
2019-09-26 11:00:00 18.8 6 Oeste 12 Noroeste 0 998.6 1.4 68
2019-09-26 10:00:00 16.1 5 Oeste 9 Oeste 0 998.3 1.6 80
2019-09-26 09:00:00 14 2 Oeste 4 Oeste 0 997.6 1 86
2019-09-26 08:00:00 13.8 4 Oeste 9 Oeste 0 997.2 0.6 85
2019-09-26 07:00:00 14.4 5 Sudoeste 13 Oeste 0 996.7 0.1 83
2019-09-26 06:00:00 15.1 6 Oeste 12 Oeste 0 996.6 -0.2 81
2019-09-26 05:00:00 15.4 6 Oeste 13 Oeste 0 996.6 -0.3 79
2019-09-26 04:00:00 16.1 7 Oeste 14 Noroeste 0 996.6 -0.3 76
2019-09-26 03:00:00 17.1 6 Oeste 12 Oeste 0 996.8 -0.2 73
2019-09-26 02:00:00 17.6 7 Oeste 14 Oeste 0 996.9 0.3 70
2019-09-26 01:00:00 18.2 6 Oeste 16 Oeste 0 996.9 0.7 66
2019-09-26 00:00:00 19.6 10 Oeste 17 Oeste 0 997 1.1 59
2019-09-25 23:00:00 20.4 10 Oeste 18 Oeste 0 996.6 0.9 55
2019-09-25 22:00:00 21.7 12 Oeste 18 Oeste 0 996.2 0.7 49
2019-09-25 21:00:00 23.4 9 Oeste 14 Oeste 0 995.9 0.1 42
2019-09-25 20:00:00 25.7 10 Oeste 15 Oeste 0 995.7 -0.4 36
2019-09-25 19:00:00 27.3 9 Oeste 24 Noroeste 0 995.5 -1.1 32
2019-09-25 18:00:00 27.8 16 Noroeste 28 Noroeste 0 995.8 -1.4 28
2019-09-25 17:00:00 27.8 13 Noroeste 34 Noroeste 0 996.1 -1.9 29
2019-09-25 16:00:00 27.4 15 Noroeste 31 Norte 0 996.6 -1.9 30
2019-09-25 15:00:00 26.2 14 Noroeste 41 Noroeste 0 997.2 -1.8 32
2019-09-25 14:00:00 24.9 14 Norte 30 Noroeste 0 998 -1 35
2019-09-25 13:00:00 22.9 13 Noroeste 25 Noroeste 0 998.5 0.1 42
2019-09-25 12:00:00 20.7 10 Noroeste 20 Noroeste 0 999 1 52
2019-09-25 11:00:00 18.1 10 Noroeste 17 Noroeste 0 999 1.4 71
2019-09-25 10:00:00 16.1 7 Oeste 13 Oeste 0 998.4 1 80
2019-09-25 09:00:00 14.4 6 Oeste 13 Oeste 0 998 0.7 92
2019-09-25 08:00:00 14.1 6 Oeste 13 Oeste 0 997.6 0 94
2019-09-25 07:00:00 14.4 8 Oeste 14 Oeste 0 997.4 -0.4 93
2019-09-25 06:00:00 15.1 8 Oeste 15 Oeste 0 997.3 -0.8 91
2019-09-25 05:00:00 15.8 9 Oeste 14 Oeste 0 997.6 -0.5 89
2019-09-25 04:00:00 16.2 6 Oeste 15 Oeste 0 997.8 -0.7 88
2019-09-25 03:00:00 17.4 7 Oeste 15 Oeste 0 998.1 -0.5 83
2019-09-25 02:00:00 18 8 Oeste 14 Oeste 0 998.1 -0.1 85
2019-09-25 01:00:00 18.3 9 Oeste 16 Oeste 0 998.5 0.6 91
2019-09-25 00:00:00 19.3 10 Oeste 19 Oeste 0 998.6 1.1 86
2019-09-24 23:00:00 20.9 11 Oeste 19 Noroeste 0 998.2 1.1 79
2019-09-24 22:00:00 21.8 8 Oeste 23 Oeste 0 997.9 1 76
2019-09-24 21:00:00 22.3 16 Oeste 31 Noroeste 0 997.5 0.8 75
2019-09-24 20:00:00 24.3 21 Noroeste 33 Noroeste 0 997.1 0 68
2019-09-24 19:00:00 26.1 21 Noroeste 30 Noroeste 0 996.9 -0.6 58
2019-09-24 18:00:00 27.3 17 Oeste 29 Noroeste 0 996.7 -1.5 54
2019-09-24 17:00:00 27.6 15 Oeste 32 Noroeste 0 997.1 -2.1 53
2019-09-24 16:00:00 27.8 13 Oeste 26 Oeste 0 997.5 -2.2 51
2019-09-24 15:00:00 25.9 12 Oeste 21 Oeste 0 998.2 -1.9 55
2019-09-24 14:00:00 24.3 10 Oeste 23 Noroeste 0 999.2 -0.8 58
2019-09-24 13:00:00 21.8 14 Oeste 24 Noroeste 0 999.7 0.2 65
2019-09-24 12:00:00 20.2 12 Oeste 21 Noroeste 0 1000.1 0.9 69
2019-09-24 11:00:00 19.3 9 Oeste 19 Noroeste 0 1000 1.1 71
2019-09-24 10:00:00 17.5 6 Oeste 13 Oeste 0 999.5 0.7 77
2019-09-24 09:00:00 14.7 4 Sudoeste 12 Sudoeste 0 999.2 0.6 85
2019-09-24 08:00:00 14.8 6 Sudoeste 14 Sudoeste 0 998.9 0.4 85
2019-09-24 07:00:00 14.5 3 Sur 5 Sur 0 998.8 0 84
2019-09-24 06:00:00 15.2 3 Sudoeste 10 Sudoeste 0 998.6 -0.3 82
2019-09-24 05:00:00 16 5 Sudoeste 10 Sudoeste 0 998.5 -0.5 80
2019-09-24 04:00:00 16.8 5 Oeste 12 Sudoeste 0 998.8 -0.1 77
2019-09-24 03:00:00 17.7 7 Oeste 14 Oeste 0 998.9 0 70
2019-09-24 02:00:00 18.4 6 Oeste 14 Oeste 0 999 0.3 62
2019-09-24 01:00:00 18.9 6 Sudoeste 10 Oeste 0 998.9 0.4 60
2019-09-24 00:00:00 19.6 5 Oeste 10 Oeste 0 998.9 0.8 58
2019-09-23 23:00:00 20.5 4 Oeste 9 Oeste 0 998.7 0.7 54
2019-09-23 22:00:00 21.5 4 Oeste 6 Oeste 0 998.5 0.5 47
2019-09-23 21:00:00 23.3 3 Oeste 5 Noroeste 0 998.1 0 49
2019-09-23 20:00:00 25.2 5 Noroeste 13 Noroeste 0 998 -0.4 37
2019-09-23 19:00:00 26.4 9 Oeste 13 Noroeste 0 998 -0.5 33
2019-09-23 18:00:00 26.8 8 Oeste 24 Oeste 0 998.1 -0.8 31
2019-09-23 17:00:00 25.9 12 Noroeste 22 Noroeste 0 998.4 -1.3 34
2019-09-23 16:00:00 25.4 12 Noroeste 21 Noroeste 0 998.5 -1.6 36
2019-09-23 15:00:00 24.2 7 Noroeste 15 Sur 0 998.9 -1.4 39
2019-09-23 14:00:00 23 6 Noroeste 15 Oeste 0 999.7 -0.5 46
2019-09-23 13:00:00 21.9 4 Oeste 8 Sudoeste 0 1000.1 0.1 48
2019-09-23 12:00:00 20.2 4 Sudoeste 9 Oeste 0 1000.3 0.8 61
2019-09-23 11:00:00 17.6 3 Oeste 6 Noroeste 0 1000.2 1.1 70
2019-09-23 10:00:00 15 3 Norte 5 Oeste 0 1000 1.6 84
2019-09-23 09:00:00 13.3 3 Oeste 9 Oeste 0 999.5 1.3 88
2019-09-23 08:00:00 13.2 4 Sudoeste 8 Sur 0 999.1 1.2 87
2019-09-23 07:00:00 13.3 4 Sur 8 Sur 0 998.4 0.6 87
2019-09-23 06:00:00 14 4 Oeste 9 Oeste 0 998.2 0.3 85
2019-09-23 05:00:00 14.5 6 Oeste 10 Sudoeste 0 997.9 0 83
2019-09-23 04:00:00 15.1 5 Oeste 10 Oeste 0 997.8 0.2 81
2019-09-23 03:00:00 15.6 4 Oeste 12 Oeste 0 997.9 0.3 78
2019-09-23 02:00:00 16.3 8 Oeste 13 Oeste 0 997.9 0.8 74
2019-09-23 01:00:00 16.7 8 Oeste 14 Oeste 0 997.6 0.9 71
2019-09-23 00:00:00 17.8 9 Oeste 14 Oeste 0 997.6 1.6 67
2019-09-22 23:00:00 19.1 6 Oeste 12 Oeste 0 997.1 1.5 61
2019-09-22 22:00:00 19.5 6 Oeste 10 Oeste 0 996.7 1.4 59
2019-09-22 21:00:00 20.7 5 Oeste 14 Noroeste 0 996 1.1 52
2019-09-22 20:00:00 22.1 10 Oeste 23 Noroeste 0 995.6 0.5 46
2019-09-22 19:00:00 23.5 14 Oeste 24 Oeste 0 995.3 -0.1 44
2019-09-22 18:00:00 24.2 13 Oeste 27 Oeste 0 994.9 -0.6 42
2019-09-22 17:00:00 23.8 17 Oeste 26 Oeste 0 995.1 -0.6 46
2019-09-22 16:00:00 23.9 13 Oeste 26 Oeste 0 995.4 -0.5 47
2019-09-22 15:00:00 22.9 12 Oeste 25 Noroeste 0 995.5 -0.2 56
2019-09-22 14:00:00 21.8 11 Oeste 23 Oeste 0 995.7 0.3 62
2019-09-22 13:00:00 20.9 9 Oeste 18 Oeste 0 995.9 0.9 69
2019-09-22 12:00:00 18.9 7 Oeste 15 Oeste 0 995.7 1.3 75
2019-09-22 11:00:00 18.5 7 Oeste 14 Oeste 0 995.4 1.5 78
2019-09-22 10:00:00 16.9 8 Oeste 13 Oeste 0 995 2 84
2019-09-22 09:00:00 15.7 3 Sudoeste 13 Oeste 0 994.4 1.9 92
2019-09-22 08:00:00 15.5 5 Oeste 14 Oeste 0 993.9 1.6 91
2019-09-22 07:00:00 15 6 Oeste 15 Sudoeste 0 993 0.7 92
2019-09-22 06:00:00 15.1 7 Oeste 21 Oeste 0 992.5 0.8 92
2019-09-22 05:00:00 15.3 8 Oeste 20 Oeste 0 992.3 1.1 93
2019-09-22 04:00:00 16 14 Oeste 28 Noroeste 0 992.3 1.1 90
2019-09-22 03:00:00 18.2 12 Oeste 29 Oeste 1 991.7 0.7 92
2019-09-22 02:00:00 18.9 10 Sudoeste 24 Sur 0 991.2 0.7 89
2019-09-22 01:00:00 19.5 11 Sur 27 Sudoeste 0 991.2 0.9 88
2019-09-22 00:00:00 20.1 7 Sudoeste 23 Sur 0 991 1.4 86
2019-09-21 23:00:00 20.5 10 Sur 20 Sur 0 990.5 1.4 85
2019-09-21 22:00:00 20.6 9 Sur 30 Sur 0.8 990.3 0.7 86
2019-09-21 21:00:00 22.6 16 Sur 27 Sur 0 989.6 0.2 72
2019-09-21 20:00:00 23.3 13 Sur 32 Sur 0 989.1 -0.7 70
2019-09-21 19:00:00 24.5 17 Sur 31 Sur 0 989.6 -0.9 64
2019-09-21 18:00:00 24.5 18 Sur 36 Sur 0 989.4 -1.6 65
2019-09-21 17:00:00 24.3 16 Sur 29 Sur 0 989.8 -1.5 66
2019-09-21 16:00:00 22.3 14 Sur 24 Sur 0 990.5 -1.2 81
2019-09-21 15:00:00 21 10 Sudoeste 27 Sur 0.2 991 -0.8 86
2019-09-21 14:00:00 20.6 13 Sur 29 Sudoeste 0 991.3 -0.2 88
2019-09-21 13:00:00 20 10 Sur 24 Sudoeste 0 991.7 0.6 88
2019-09-21 12:00:00 19.3 8 Sudeste 14 Sudeste 0.4 991.8 1 88
2019-09-21 11:00:00 18.5 7 Sudeste 19 Sudeste 0.6 991.5 1.2 87
2019-09-21 10:00:00 18.1 6 Sudeste 18 Sur 1.4 991.1 0.6 87
2019-09-21 09:00:00 19.4 4 Sudeste 10 Sudeste 0.2 990.8 0.3 75
2019-09-21 08:00:00 19.8 7 Sudeste 13 Sudeste 0 990.3 -0.5 68
2019-09-21 07:00:00 19.5 6 Sudeste 12 Sudeste 0 990.5 -0.7 71
2019-09-21 06:00:00 19.5 7 Sur 13 Sur 0 990.5 -1.2 72
2019-09-21 05:00:00 18.6 7 Sur 12 Sur 0 990.8 -0.7 75
2019-09-21 04:00:00 18.9 8 Sur 13 Sur 0 991.2 -0.4 74
2019-09-21 03:00:00 19.4 5 Sur 12 Sur 0 991.7 -0.2 72
2019-09-21 02:00:00 20.3 6 Sudoeste 17 Sur 0 991.5 -0.4 67
2019-09-21 01:00:00 20.4 10 Sur 17 Sur 0 991.6 0 64
2019-09-21 00:00:00 20.1 7 Sur 18 Sur 0 991.9 0.8 62
2019-09-20 23:00:00 20.4 5 Sur 10 Sur 0 991.9 0.8 60
2019-09-20 22:00:00 21.2 3 Sudoeste 7 Sur 0 991.6 0.4 58
2019-09-20 21:00:00 22.3 3 Sudoeste 13 Sur 0 991.1 -0.2 53
2019-09-20 20:00:00 24 6 Sudoeste 21 Sur 0 991.1 -0.2 48
2019-09-20 19:00:00 24.3 8 Sudoeste 17 Sur 0 991.2 -0.5 50
2019-09-20 18:00:00 22.7 8 Sudoeste 31 Oeste 0.4 991.3 -0.4 67
2019-09-20 17:00:00 26 10 Sudoeste 31 Oeste 0 991.3 -0.6 47
2019-09-20 16:00:00 27 15 Oeste 33 Sudoeste 0 991.7 -0.9 43
2019-09-20 15:00:00 27.1 11 Oeste 24 Oeste 0 991.7 -1.5 44
2019-09-20 14:00:00 26.7 7 Oeste 22 Sur 0 991.9 -1.5 44
2019-09-20 13:00:00 25.2 8 Sudeste 14 Sudoeste 0 992.6 -0.8 48
2019-09-20 12:00:00 23 5 Sudoeste 10 Sur 0 993.2 0.4 56
2019-09-20 11:00:00 20.9 4 Oeste 12 Oeste 0 993.4 0.9 65
2019-09-20 10:00:00 19.4 7 Oeste 14 Oeste 0 993.4 1 69
2019-09-20 09:00:00 17.2 3 Sur 6 Sur 0 992.8 0.5 77
2019-09-20 08:00:00 16.9 3 Sur 7 Oeste 0 992.5 -0.2 78
2019-09-20 07:00:00 17.5 3 Oeste 9 Oeste 0 992.4 -0.5 76
2019-09-20 06:00:00 17.8 4 Sudoeste 9 Sudoeste 0 992.3 -0.9 74
2019-09-20 05:00:00 18.2 4 Sudoeste 8 Sudoeste 0 992.7 -0.3 73
2019-09-20 04:00:00 18.7 3 Sudoeste 13 Oeste 0 992.9 -0.3 69
2019-09-20 03:00:00 20 8 Oeste 16 Oeste 0 993.2 0 67
2019-09-20 02:00:00 21.3 6 Oeste 17 Noroeste 0 993 -0.1 61
2019-09-20 01:00:00 22.1 9 Oeste 19 Oeste 0 993.2 0.6 57
2019-09-20 00:00:00 23.2 10 Oeste 22 Oeste 0 993.2 1.3 52
2019-09-19 23:00:00 23.8 9 Oeste 17 Oeste 0 993.1 1.5 52
2019-09-19 22:00:00 24.8 10 Oeste 23 Oeste 0 992.6 1.1 48
2019-09-19 21:00:00 26.8 5 Sudoeste 15 Oeste 0 991.9 0.1 36
2019-09-19 20:00:00 28.6 10 Oeste 16 Oeste 0 991.6 -0.7 32
2019-09-19 19:00:00 29.4 11 Noroeste 19 Noroeste 0 991.5 -1.3 30
2019-09-19 18:00:00 30.5 10 Noroeste 19 Noroeste 0 991.8 -1.8 31
2019-09-19 17:00:00 31 8 Oeste 18 Sur 0 992.3 -2.1 31
2019-09-19 16:00:00 30.5 5 Sudeste 14 Sur 0 992.8 -2.4 32
2019-09-19 15:00:00 29.4 5 Oeste 15 Noroeste 0 993.6 -1.8 36
2019-09-19 14:00:00 27.8 3 Sur 14 Noroeste 0 994.4 -1 41
2019-09-19 13:00:00 25.4 7 Noroeste 14 Noroeste 0 995.2 0 49
2019-09-19 12:00:00 23.2 5 Noroeste 12 Noroeste 0 995.4 0.5 56
2019-09-19 11:00:00 20.7 7 Oeste 14 Oeste 0 995.4 0.8 65
2019-09-19 10:00:00 18.7 7 Oeste 15 Oeste 0 995.2 1 73
2019-09-19 09:00:00 16.8 6 Oeste 11 Oeste 0 994.9 0.7 80
2019-09-19 08:00:00 16.4 7 Oeste 14 Oeste 0 994.6 0.3 79
2019-09-19 07:00:00 16.4 5 Oeste 12 Sudoeste 0 994.2 -0.4 78
2019-09-19 06:00:00 16.8 3 Sudoeste 10 Sudoeste 0 994.2 -0.7 76
2019-09-19 05:00:00 17.6 4 Sudoeste 8 Sudoeste 0 994.3 -0.5 73
2019-09-19 04:00:00 18.1 3 Sudoeste 8 Oeste 0 994.6 -0.3 71
2019-09-19 03:00:00 19.4 4 Sudoeste 15 Oeste 0 994.9 0.1 68
2019-09-19 02:00:00 20.4 8 Oeste 19 Oeste 0 994.8 0.6 65
2019-09-19 01:00:00 21.5 13 Oeste 24 Oeste 0 994.9 1.4 60
2019-09-19 00:00:00 22.8 12 Oeste 28 Noroeste 0 994.8 1.8 53
2019-09-18 23:00:00 24.4 11 Oeste 21 Oeste 0 994.2 1.5 45
2019-09-18 22:00:00 25.4 4 Sudoeste 14 Sudoeste 0 993.5 1 41
2019-09-18 21:00:00 26.9 6 Sudoeste 13 Sudoeste 0 993 0.4 31
2019-09-18 20:00:00 28.6 7 Oeste 19 Oeste 0 992.7 -0.2 29
2019-09-18 19:00:00 29.8 7 Oeste 21 Noroeste 0 992.5 -0.8 29
2019-09-18 18:00:00 30.7 11 Noroeste 22 Oeste 0 992.6 -1.5 30
2019-09-18 17:00:00 31.3 5 Sudoeste 20 Oeste 0 992.9 -1.7 29
2019-09-18 16:00:00 30.3 6 Sudoeste 17 Oeste 0 993.3 -1.5 34
2019-09-18 15:00:00 29.7 5 Sudeste 16 Noroeste 0 994.1 -0.9 37
2019-09-18 14:00:00 28 7 Noroeste 15 Norte 0 994.6 -0.3 43
2019-09-18 13:00:00 25.9 5 Sudoeste 11 Noroeste 0 994.8 0.1 49
2019-09-18 12:00:00 24.1 4 Sur 8 Oeste 0 995 0.7 53
2019-09-18 11:00:00 21.5 5 Noroeste 13 Noroeste 0 994.9 1.1 61
2019-09-18 10:00:00 19.8 7 Oeste 12 Sudoeste 0 994.7 1.7 68
2019-09-18 09:00:00 17.5 6 Oeste 10 Oeste 0 994.3 1.6 75
2019-09-18 08:00:00 16.6 3 Sur 7 Noroeste 0 993.8 1 76
2019-09-18 07:00:00 16.8 5 Norte 8 Oeste 0 993 0.4 74
2019-09-18 06:00:00 18 3 Sudoeste 8 Oeste 0 992.7 -0.2 70
2019-09-18 05:00:00 18.6 3 Oeste 8 Sudoeste 0 992.8 0.1 68
2019-09-18 04:00:00 19.4 4 Sudoeste 8 Sudoeste 0 992.6 -0.2 65
2019-09-18 03:00:00 20.6 3 Sudoeste 13 Sudoeste 0 992.9 -0.2 60
2019-09-18 02:00:00 21.8 6 Sur 14 Sudoeste 0 992.7 -0.1 56
2019-09-18 01:00:00 21.8 4 Este 10 Este 0 992.8 1.1 58
2019-09-18 00:00:00 23.3 10 Este 26 Sudeste 0 993.1 2 53